createdAt,value
2019-01-27T00:01:01.840Z,95.60
2019-01-27T00:05:07.292Z,95.50
2019-01-27T00:09:12.174Z,95.60
2019-01-27T00:13:16.984Z,95.60
2019-01-27T00:17:21.781Z,95.50
2019-01-27T00:21:26.595Z,95.30
2019-01-27T00:25:31.408Z,95.70
2019-01-27T00:29:36.211Z,95.30
2019-01-27T00:33:41.019Z,95.30
2019-01-27T00:37:45.815Z,95.30
2019-01-27T00:41:50.623Z,95.30
2019-01-27T00:45:55.443Z,95.20
2019-01-27T00:50:00.261Z,95.30
2019-01-27T00:54:05.135Z,95.20
2019-01-27T00:58:09.925Z,95.00
2019-01-27T01:02:14.743Z,94.90
2019-01-27T01:06:19.551Z,94.90
2019-01-27T01:10:24.658Z,94.70
2019-01-27T01:14:29.467Z,94.60
2019-01-27T01:18:34.271Z,94.40
2019-01-27T01:22:39.250Z,94.50
2019-01-27T01:26:44.075Z,94.60
2019-01-27T01:30:48.895Z,94.60
2019-01-27T01:34:53.767Z,94.60
2019-01-27T01:38:58.721Z,94.60
2019-01-27T01:43:03.510Z,94.60
2019-01-27T01:47:08.323Z,94.60
2019-01-27T01:51:13.138Z,94.50
2019-01-27T01:55:17.946Z,94.40
2019-01-27T01:59:22.754Z,94.40
2019-01-27T02:03:27.557Z,94.30
2019-01-27T02:07:32.359Z,94.20
2019-01-27T02:11:38.527Z,94.30
2019-01-27T02:15:55.788Z,94.40
2019-01-27T02:20:01.659Z,94.40
2019-01-27T02:24:06.525Z,94.50
2019-01-27T02:28:11.344Z,94.60
2019-01-27T02:32:16.151Z,94.60
2019-01-27T02:36:20.971Z,94.60
2019-01-27T02:40:25.792Z,94.70
2019-01-27T02:44:30.605Z,94.60
2019-01-27T02:48:35.411Z,94.40
2019-01-27T02:52:40.211Z,94.20
2019-01-27T02:56:45.033Z,94.50
2019-01-27T03:00:49.945Z,94.10
2019-01-27T03:04:56.487Z,94.00
2019-01-27T03:09:02.903Z,93.80
2019-01-27T03:13:09.349Z,93.70
2019-01-27T03:17:16.035Z,93.60
2019-01-27T03:21:20.839Z,93.90
2019-01-27T03:25:25.651Z,93.40
2019-01-27T03:29:30.450Z,93.40
2019-01-27T03:33:35.263Z,93.50
2019-01-27T03:37:40.080Z,93.50
2019-01-27T03:41:44.903Z,93.50
2019-01-27T03:45:49.750Z,93.50
2019-01-27T03:49:54.531Z,93.40
2019-01-27T03:53:59.354Z,93.40
2019-01-27T03:58:04.270Z,93.40
2019-01-27T04:02:09.084Z,93.40
2019-01-27T04:06:13.961Z,93.40
2019-01-27T04:10:24.563Z,93.40
2019-01-27T04:14:29.384Z,93.40
2019-01-27T04:18:34.186Z,93.40
2019-01-27T04:22:38.999Z,93.50
2019-01-27T04:26:43.830Z,93.60
2019-01-27T04:30:48.639Z,93.60
2019-01-27T04:34:53.435Z,93.30
2019-01-27T04:38:58.318Z,93.00
2019-01-27T04:43:03.132Z,92.80
2019-01-27T04:47:07.982Z,92.60
2019-01-27T04:51:12.791Z,92.50
2019-01-27T04:55:18.715Z,92.30
2019-01-27T04:59:23.642Z,92.10
2019-01-27T05:03:30.087Z,92.10
2019-01-27T05:07:34.939Z,92.00
2019-01-27T05:11:39.866Z,92.10
2019-01-27T05:15:44.684Z,92.10
2019-01-27T05:19:49.587Z,92.00
2019-01-27T05:23:54.400Z,91.80
2019-01-27T05:27:59.217Z,91.60
2019-01-27T05:32:04.025Z,91.70
2019-01-27T05:36:08.835Z,91.60
2019-01-27T05:40:16.235Z,92.00
2019-01-27T05:44:21.044Z,91.70
2019-01-27T05:48:25.937Z,91.70
2019-01-27T05:52:31.547Z,91.50
2019-01-27T05:56:36.358Z,91.50
2019-01-27T06:00:42.781Z,91.50
2019-01-27T06:04:47.609Z,91.50
2019-01-27T06:08:52.412Z,91.30
2019-01-27T06:12:57.245Z,91.30
2019-01-27T06:17:02.146Z,91.40
2019-01-27T06:21:06.934Z,91.20
2019-01-27T06:25:17.056Z,91.20
2019-01-27T06:29:21.872Z,91.10
2019-01-27T06:33:28.321Z,90.90
2019-01-27T06:37:33.144Z,91.10
2019-01-27T06:41:38.047Z,91.00
2019-01-27T06:45:42.855Z,90.80
2019-01-27T06:49:47.676Z,90.60
2019-01-27T06:53:52.499Z,90.60
2019-01-27T06:57:57.303Z,90.60
2019-01-27T07:02:03.816Z,90.70
2019-01-27T07:06:12.926Z,90.60
2019-01-27T07:10:35.639Z,90.50
2019-01-27T07:14:48.174Z,90.50
2019-01-27T07:19:03.782Z,90.50
2019-01-27T07:23:27.728Z,90.70
2019-01-27T07:27:42.972Z,90.50
2019-01-27T07:31:49.424Z,90.30
2019-01-27T07:35:55.860Z,90.30
2019-01-27T07:40:08.072Z,90.30
2019-01-27T07:44:17.211Z,90.20
2019-01-27T07:48:32.452Z,90.10
2019-01-27T07:52:51.054Z,90.40
2019-01-27T07:56:57.493Z,90.20
2019-01-27T08:01:03.918Z,90.00
2019-01-27T08:05:28.138Z,89.80
2019-01-27T08:09:34.860Z,89.70
2019-01-27T08:13:41.315Z,90.00
2019-01-27T08:18:06.224Z,90.00
2019-01-27T08:22:21.611Z,90.00
2019-01-27T08:26:33.840Z,90.50
2019-01-27T08:30:43.193Z,90.80
2019-01-27T08:35:07.834Z,90.80
2019-01-27T08:39:14.296Z,90.60
2019-01-27T08:43:37.008Z,90.40
2019-01-27T08:47:41.898Z,90.40
2019-01-27T08:51:46.745Z,90.40
2019-01-27T08:55:51.559Z,90.50
2019-01-27T08:59:56.363Z,90.00
2019-01-27T09:04:02.817Z,89.40
2019-01-27T09:08:09.272Z,88.40
2019-01-27T09:12:18.404Z,87.20
2019-01-27T09:16:30.949Z,87.00
2019-01-27T09:20:41.232Z,87.30
2019-01-27T09:24:56.522Z,86.80
2019-01-27T09:29:05.843Z,88.70
2019-01-27T09:33:12.321Z,88.70
2019-01-27T09:37:18.751Z,87.30
2019-01-27T09:41:25.200Z,86.50
2019-01-27T09:45:31.666Z,84.70
2019-01-27T09:49:41.010Z,84.20
2019-01-27T09:53:50.695Z,84.50
2019-01-27T09:58:03.415Z,85.40
2019-01-27T10:02:12.633Z,85.40
2019-01-27T10:06:28.292Z,85.30
2019-01-27T10:10:37.484Z,85.70
2019-01-27T10:14:49.912Z,85.20
2019-01-27T10:19:14.533Z,85.30
2019-01-27T10:23:37.187Z,84.40
2019-01-27T10:27:55.411Z,84.70
2019-01-27T10:32:01.858Z,84.80
2019-01-27T10:36:10.994Z,83.90
2019-01-27T10:40:17.448Z,82.90
2019-01-27T10:44:23.899Z,81.90
2019-01-27T10:48:33.481Z,82.20
2019-01-27T10:52:44.012Z,81.60
2019-01-27T10:57:02.280Z,81.00
2019-01-27T11:01:08.799Z,80.90
2019-01-27T11:05:30.576Z,79.90
2019-01-27T11:09:52.355Z,79.50
2019-01-27T11:14:11.060Z,79.50
2019-01-27T11:18:20.186Z,79.90
2019-01-27T11:22:29.555Z,79.20
2019-01-27T11:26:36.008Z,79.50
2019-01-27T11:30:54.363Z,80.20
2019-01-27T11:35:06.528Z,81.40
2019-01-27T11:39:15.677Z,80.30
2019-01-27T11:43:22.107Z,80.50
2019-01-27T11:47:31.230Z,81.10
2019-01-27T11:51:37.939Z,81.00
2019-01-27T11:55:42.769Z,80.80
2019-01-27T11:59:47.595Z,81.50
2019-01-27T12:03:52.402Z,81.60
2019-01-27T12:07:57.271Z,81.50
2019-01-27T12:12:02.115Z,81.20
2019-01-27T12:16:06.928Z,80.80
2019-01-27T12:20:12.572Z,79.80
2019-01-27T12:24:17.415Z,79.40
2019-01-27T12:28:22.285Z,79.70
2019-01-27T12:32:27.604Z,79.10
2019-01-27T12:36:32.695Z,78.80
2019-01-27T12:40:37.776Z,78.10
2019-01-27T12:44:42.887Z,78.50
2019-01-27T12:48:47.946Z,77.60
2019-01-27T12:52:53.965Z,77.70
2019-01-27T12:56:59.043Z,77.20
2019-01-27T13:01:03.924Z,76.80
2019-01-27T13:05:10.445Z,76.00
2019-01-27T13:09:15.611Z,76.90
2019-01-27T13:13:20.450Z,77.00
2019-01-27T13:17:26.532Z,76.90
2019-01-27T13:21:31.646Z,76.50
2019-01-27T13:25:36.747Z,76.70
2019-01-27T13:29:41.558Z,77.70
2019-01-27T13:33:46.391Z,78.40
2019-01-27T13:37:52.675Z,79.00
2019-01-27T13:41:57.790Z,79.40
2019-01-27T13:46:02.607Z,79.50
2019-01-27T13:50:10.526Z,79.70
2019-01-27T13:54:16.279Z,79.30
2019-01-27T13:58:21.102Z,80.00
2019-01-27T14:02:25.958Z,80.60
2019-01-27T14:06:30.839Z,80.30
2019-01-27T14:10:35.654Z,79.30
2019-01-27T14:14:40.457Z,79.30
2019-01-27T14:18:45.266Z,78.50
2019-01-27T14:22:50.115Z,78.70
2019-01-27T14:26:54.948Z,79.10
2019-01-27T14:30:59.758Z,79.50
2019-01-27T14:35:06.402Z,80.70
2019-01-27T14:39:11.324Z,81.30
2019-01-27T14:43:16.134Z,81.20
2019-01-27T14:47:21.751Z,81.50
2019-01-27T14:51:27.576Z,81.50
2019-01-27T14:55:32.410Z,81.50
2019-01-27T14:59:37.251Z,81.30
2019-01-27T15:03:42.055Z,81.50
2019-01-27T15:07:46.940Z,81.80
2019-01-27T15:11:52.888Z,81.70
2019-01-27T15:15:57.690Z,82.10
2019-01-27T15:20:02.484Z,82.40
2019-01-27T15:24:07.292Z,83.30
2019-01-27T15:28:12.103Z,83.20
2019-01-27T15:32:17.119Z,83.50
2019-01-27T15:36:21.936Z,83.70
2019-01-27T15:40:26.728Z,83.80
2019-01-27T15:44:31.535Z,83.80
2019-01-27T15:48:36.347Z,84.00
2019-01-27T15:52:42.247Z,84.40
2019-01-27T15:56:47.062Z,84.70
2019-01-27T16:00:51.896Z,85.20
2019-01-27T16:04:56.679Z,85.80
2019-01-27T16:09:01.516Z,86.50
2019-01-27T16:13:07.939Z,86.70
2019-01-27T16:17:13.762Z,87.20
2019-01-27T16:21:18.571Z,87.30
2019-01-27T16:25:23.363Z,87.40
2019-01-27T16:29:29.816Z,88.50
2019-01-27T16:33:52.890Z,89.40
2019-01-27T16:37:57.703Z,89.90
2019-01-27T16:42:02.527Z,90.00
2019-01-27T16:46:07.406Z,89.90
2019-01-27T16:50:15.101Z,89.40
2019-01-27T16:54:19.919Z,88.80
2019-01-27T16:58:24.728Z,88.90
2019-01-27T17:02:29.570Z,88.90
2019-01-27T17:06:34.438Z,89.10
2019-01-27T17:10:39.231Z,89.00
2019-01-27T17:14:44.038Z,89.10
2019-01-27T17:18:48.855Z,89.20
2019-01-27T17:22:53.681Z,89.70
2019-01-27T17:26:58.778Z,90.10
2019-01-27T17:31:03.653Z,90.20
2019-01-27T17:35:10.511Z,90.20
2019-01-27T17:39:15.330Z,90.20
2019-01-27T17:43:20.153Z,90.20
2019-01-27T17:47:24.988Z,90.00
2019-01-27T17:51:29.796Z,89.90
2019-01-27T17:55:42.152Z,89.90
2019-01-27T17:59:48.644Z,90.10
2019-01-27T18:03:55.109Z,90.10
2019-01-27T18:08:04.395Z,90.20
2019-01-27T18:12:10.847Z,90.20
2019-01-27T18:16:15.648Z,90.30
2019-01-27T18:20:20.538Z,90.40
2019-01-27T18:24:25.453Z,90.60
2019-01-27T18:28:30.265Z,90.70
2019-01-27T18:32:35.097Z,90.70
2019-01-27T18:36:39.891Z,90.70
2019-01-27T18:40:45.680Z,90.90
2019-01-27T18:44:50.500Z,90.90
2019-01-27T18:48:55.309Z,90.90
2019-01-27T18:53:03.547Z,91.30
2019-01-27T18:57:18.999Z,90.80
2019-01-27T19:01:41.937Z,90.80
2019-01-27T19:05:48.388Z,90.80
2019-01-27T19:10:11.333Z,90.80
2019-01-27T19:14:17.811Z,90.90
2019-01-27T19:18:40.547Z,90.90
2019-01-27T19:22:46.995Z,91.00
2019-01-27T19:27:11.586Z,91.00
2019-01-27T19:31:30.062Z,91.10
2019-01-27T19:35:42.286Z,91.20
2019-01-27T19:39:57.864Z,91.30
2019-01-27T19:44:16.314Z,91.50
2019-01-27T19:48:22.801Z,91.30
2019-01-27T19:52:41.108Z,91.30
2019-01-27T19:57:03.816Z,91.30
2019-01-27T20:01:20.324Z,91.30
2019-01-27T20:05:41.982Z,91.10
2019-01-27T20:09:57.530Z,91.00
2019-01-27T20:14:06.524Z,90.80
2019-01-27T20:18:13.135Z,90.70
2019-01-27T20:22:25.500Z,90.60
2019-01-27T20:26:41.175Z,90.50
2019-01-27T20:30:47.791Z,90.50
2019-01-27T20:35:00.317Z,90.60
2019-01-27T20:39:24.877Z,90.50
2019-01-27T20:43:40.283Z,90.40
2019-01-27T20:47:52.750Z,90.30
2019-01-27T20:52:01.907Z,90.20
2019-01-27T20:56:09.439Z,90.00
2019-01-27T21:00:35.707Z,89.70
2019-01-27T21:04:42.344Z,89.60
2019-01-27T21:08:51.826Z,89.10
2019-01-27T21:12:58.273Z,89.10
2019-01-27T21:17:04.804Z,88.90
2019-01-27T21:21:10.695Z,89.00
2019-01-27T21:25:15.512Z,89.20
2019-01-27T21:29:20.490Z,89.40
2019-01-27T21:33:25.284Z,89.70
2019-01-27T21:37:30.099Z,89.40
2019-01-27T21:41:34.908Z,89.30
2019-01-27T21:45:39.744Z,88.90
2019-01-27T21:49:45.638Z,88.70
2019-01-27T21:53:52.223Z,88.30
2019-01-27T21:57:57.495Z,87.90
2019-01-27T22:02:02.302Z,88.70
2019-01-27T22:06:07.280Z,88.30
2019-01-27T22:10:14.215Z,88.40
2019-01-27T22:14:19.001Z,88.30
2019-01-27T22:18:23.815Z,88.30
2019-01-27T22:22:29.633Z,88.20
2019-01-27T22:26:34.446Z,87.50
2019-01-27T22:30:39.259Z,87.00
2019-01-27T22:34:44.067Z,86.70
2019-01-27T22:38:48.940Z,86.60
2019-01-27T22:42:54.738Z,86.20
2019-01-27T22:46:59.560Z,86.30
2019-01-27T22:51:04.377Z,86.20
2019-01-27T22:55:10.243Z,86.40
2019-01-27T22:59:15.024Z,86.30
2019-01-27T23:03:19.840Z,86.10
2019-01-27T23:07:24.667Z,86.00
2019-01-27T23:11:29.566Z,86.10
2019-01-27T23:15:34.399Z,86.30
2019-01-27T23:19:39.175Z,86.50
2019-01-27T23:23:43.993Z,86.40
2019-01-27T23:27:48.804Z,86.20
2019-01-27T23:31:53.620Z,86.00
2019-01-27T23:35:58.440Z,86.10
2019-01-27T23:40:04.015Z,86.60
2019-01-27T23:44:08.823Z,86.10
2019-01-27T23:48:13.714Z,86.10
2019-01-27T23:52:18.523Z,86.20
2019-01-27T23:56:23.405Z,86.20
